Time;durP1;ratioP1;P1;durP2;ratioP2;P2;SDS_P1;SDS_P2;PMS_P1;PMS_P2;Temp;Humidity;BMP_temperature;BMP_pressure;BME280_temperature;BME280_humidity;BME280_pressure;Samples;Min_cycle;Max_cycle;Signal;HPM_P1;HPM_P2
2023/06/23 00:00:33;;;;;;;27.20;15.63;;;;;;;-144.73;100.00;54300.97;4975910;28;20030;-74
2023/06/23 00:02:58;;;;;;;32.55;13.80;;;;;;;-144.73;100.00;54305.06;4990347;28;20041;-75
2023/06/23 00:05:25;;;;;;;23.67;13.50;;;;;;;-144.73;100.00;54305.06;4991711;28;20112;-74
2023/06/23 00:07:50;;;;;;;24.27;13.10;;;;;;;-144.73;100.00;54342.03;4990607;28;20042;-75
2023/06/23 00:10:16;;;;;;;30.33;13.98;;;;;;;-144.73;100.00;54311.22;4990610;28;20018;-73
2023/06/23 00:12:41;;;;;;;40.97;15.18;;;;;;;-144.73;100.00;54317.38;4990510;28;20045;-74
2023/06/23 00:15:08;;;;;;;39.88;17.85;;;;;;;-144.73;100.00;54346.13;4990496;28;20101;-74
2023/06/23 00:17:36;;;;;;;50.40;21.77;;;;;;;-144.73;100.00;54325.59;4990283;28;20120;-74
2023/06/23 00:20:07;;;;;;;42.42;19.23;;;;;;;-144.73;100.00;54342.03;4991087;28;20105;-73
2023/06/23 00:22:33;;;;;;;47.33;17.42;;;;;;;-144.73;100.00;54358.44;4990570;28;20026;-74
2023/06/23 00:24:58;;;;;;;32.22;17.65;;;;;;;-144.73;100.00;54331.75;4990152;28;20026;-73
2023/06/23 00:27:23;;;;;;;27.83;16.38;;;;;;;-144.73;100.00;54346.13;4994334;28;20045;-74
2023/06/23 00:29:48;;;;;;;36.38;19.17;;;;;;;-144.73;100.00;54342.03;5010415;28;20100;-73
2023/06/23 00:32:14;;;;;;;38.80;19.08;;;;;;;-144.73;100.00;54325.59;5009826;28;20034;-72
2023/06/23 00:34:39;;;;;;;40.92;19.90;;;;;;;-144.73;100.00;54300.97;4994363;28;20064;-72
2023/06/23 00:37:04;;;;;;;42.90;21.10;;;;;;;-144.73;100.00;54342.03;4992833;28;20118;-71
2023/06/23 00:39:30;;;;;;;32.40;16.65;;;;;;;-144.73;100.00;54317.38;5009934;28;20025;-71
2023/06/23 00:41:56;;;;;;;27.20;17.35;;;;;;;-144.73;100.00;54317.38;4992743;28;20045;-71
2023/06/23 00:44:21;;;;;;;28.00;15.90;;;;;;;-144.73;100.00;54309.19;4993346;28;20465;-71
2023/06/23 00:46:47;;;;;;;27.33;16.17;;;;;;;-144.73;100.00;54317.38;4992650;28;20041;-71
2023/06/23 00:49:14;;;;;;;35.03;17.77;;;;;;;-144.73;100.00;54317.38;5009956;28;20030;-71
2023/06/23 00:51:40;;;;;;;27.50;14.68;;;;;;;-144.73;100.00;54329.72;5010281;28;20025;-71
2023/06/23 00:54:07;;;;;;;30.02;16.02;;;;;;;-144.73;100.00;54370.75;5009610;28;20021;-71
2023/06/23 00:56:33;;;;;;;35.13;18.27;;;;;;;-144.73;100.00;54366.66;4992634;28;20071;-71
2023/06/23 00:58:59;;;;;;;32.50;18.42;;;;;;;-144.73;100.00;54317.38;5009334;28;20022;-72
2023/06/23 01:01:25;;;;;;;31.85;17.15;;;;;;;-144.73;100.00;54313.28;4992962;28;20029;-71
2023/06/23 01:03:50;;;;;;;28.75;17.40;;;;;;;-144.73;100.00;54333.81;5010922;28;20123;-71
2023/06/23 01:06:29;;;;;;;36.50;19.15;;;;;;;-144.73;100.00;54333.81;4993316;28;20056;-71
2023/06/23 01:09:00;;;;;;;29.40;16.90;;;;;;;-144.73;100.00;54337.91;5009244;28;20038;-71
2023/06/23 01:11:35;;;;;;;30.50;17.52;;;;;;;-144.73;100.00;54321.50;5010251;28;20041;-72
2023/06/23 01:14:09;;;;;;;33.00;17.85;;;;;;;-144.73;100.00;54319.44;4993161;28;20042;-71
2023/06/23 01:16:44;;;;;;;33.28;17.63;;;;;;;-144.73;100.00;54335.88;4992860;28;20034;-71
2023/06/23 01:19:36;;;;;;;31.77;16.10;;;;;;;-144.73;100.00;54344.06;5010830;28;20029;-71
2023/06/23 01:22:58;;;;;;;22.45;15.98;;;;;;;-144.73;100.00;54313.28;5010163;28;20030;-71
2023/06/23 01:25:50;;;;;;;24.92;15.20;;;;;;;-144.73;100.00;54303.03;4969116;28;20082;-71
2023/06/23 01:28:18;;;;;;;26.58;15.48;;;;;;;-144.73;100.00;54342.03;4968728;28;20110;-71
2023/06/23 01:30:47;;;;;;;21.02;13.90;;;;;;;-144.73;100.00;54333.81;4979395;28;20033;-71
2023/06/23 01:33:18;;;;;;;38.30;16.65;;;;;;;-144.73;100.00;54354.34;4992648;28;20077;-71
2023/06/23 01:35:48;;;;;;;28.92;17.40;;;;;;;-144.73;100.00;54358.44;5015070;28;20033;-70
2023/06/23 01:38:22;;;;;;;30.85;16.23;;;;;;;-144.73;100.00;54370.75;5012467;28;20034;-70
2023/06/23 01:40:52;;;;;;;30.27;17.40;;;;;;;-144.73;100.00;54350.22;5014584;28;20049;-71
2023/06/23 01:43:29;;;;;;;29.48;16.02;;;;;;;-144.73;100.00;54325.59;5013815;28;20073;-71
2023/06/23 01:46:09;;;;;;;32.30;17.42;;;;;;;-144.73;100.00;54362.53;4996850;28;20041;-70
2023/06/23 01:48:39;;;;;;;26.92;16.63;;;;;;;-144.73;100.00;54319.44;5013607;28;20034;-70
2023/06/23 01:51:06;;;;;;;27.70;16.35;;;;;;;-144.73;100.00;54329.72;4996715;28;20030;-69
2023/06/23 01:53:32;;;;;;;28.70;16.85;;;;;;;-144.73;100.00;54350.22;5012439;28;20038;-70
2023/06/23 01:56:01;;;;;;;27.33;15.85;;;;;;;-144.73;100.00;54337.91;5013131;28;20033;-70
2023/06/23 01:58:29;;;;;;;35.75;15.88;;;;;;;-144.73;100.00;54325.59;5013463;28;20030;-71
2023/06/23 02:00:55;;;;;;;30.20;15.73;;;;;;;-144.73;100.00;54335.88;4996485;28;20060;-71
2023/06/23 02:03:22;;;;;;;27.65;17.02;;;;;;;-144.73;100.00;54354.34;4996869;28;20417;-71
2023/06/23 02:05:50;;;;;;;31.83;17.70;;;;;;;-144.73;100.00;54333.81;5013508;28;20048;-72
2023/06/23 02:08:16;;;;;;;30.38;16.33;;;;;;;-144.73;100.00;54321.50;5013428;28;20054;-70
2023/06/23 02:10:42;;;;;;;33.92;17.50;;;;;;;-144.73;100.00;54348.19;5013823;28;20033;-71
2023/06/23 02:13:08;;;;;;;31.40;17.67;;;;;;;-144.73;100.00;54329.72;4995597;28;20034;-71
2023/06/23 02:15:35;;;;;;;33.45;18.05;;;;;;;-144.73;100.00;54362.53;4996774;28;20025;-71
2023/06/23 02:18:02;;;;;;;30.58;17.17;;;;;;;-144.73;100.00;54342.03;4995658;28;20030;-71
2023/06/23 02:20:29;;;;;;;41.33;19.13;;;;;;;-144.73;100.00;54354.34;4996044;28;20026;-72
2023/06/23 02:22:55;;;;;;;33.80;18.17;;;;;;;-144.73;100.00;54354.34;4995461;28;20057;-71
2023/06/23 02:25:22;;;;;;;28.95;16.50;;;;;;;-144.73;100.00;54358.44;4996432;28;20049;-70
2023/06/23 02:27:51;;;;;;;36.30;16.67;;;;;;;-144.73;100.00;54366.66;4995695;28;20449;-70
2023/06/23 02:30:18;;;;;;;26.40;16.05;;;;;;;-144.73;100.00;54372.81;4995828;28;20029;-70
2023/06/23 02:32:47;;;;;;;28.33;17.35;;;;;;;-144.73;100.00;54366.66;4995926;28;20038;-70
2023/06/23 02:35:13;;;;;;;45.33;17.42;;;;;;;-144.73;100.00;54370.75;4996142;28;20026;-69
2023/06/23 02:37:41;;;;;;;23.33;14.27;;;;;;;-144.73;100.00;54374.84;4995141;28;20069;-70
2023/06/23 02:40:16;;;;;;;24.15;14.38;;;;;;;-144.73;100.00;54370.75;5013414;28;20025;-71
2023/06/23 02:42:51;;;;;;;18.92;11.75;;;;;;;-144.73;100.00;54378.97;4995927;28;20064;-69
2023/06/23 02:45:22;;;;;;;20.55;10.20;;;;;;;-144.73;100.00;54339.97;4995070;28;20033;-69
2023/06/23 02:47:49;;;;;;;15.38;9.82;;;;;;;-144.73;100.00;54335.88;5011504;28;20109;-71
2023/06/23 02:50:16;;;;;;;15.02;9.00;;;;;;;-144.73;100.00;54329.72;4996005;28;20018;-71
2023/06/23 02:52:47;;;;;;;15.82;9.00;;;;;;;-144.73;100.00;54370.75;4995427;28;20056;-70
2023/06/23 02:55:19;;;;;;;11.00;7.57;;;;;;;-144.73;100.00;54383.06;4995333;28;20018;-71
2023/06/23 02:57:49;;;;;;;12.75;7.78;;;;;;;-144.73;100.00;54323.53;5011886;28;20030;-71
2023/06/23 03:00:19;;;;;;;16.65;8.38;;;;;;;-144.73;100.00;54348.19;5011767;28;20037;-71
2023/06/23 03:02:51;;;;;;;13.30;9.23;;;;;;;-144.73;100.00;54368.69;4995324;28;20041;-72
2023/06/23 03:05:16;;;;;;;16.65;8.48;;;;;;;-144.73;100.00;54407.69;4995727;28;20022;-70
2023/06/23 03:07:42;;;;;;;14.15;8.35;;;;;;;-144.73;100.00;54354.34;5011020;28;20092;-71
2023/06/23 03:10:08;;;;;;;14.95;9.50;;;;;;;-144.73;100.00;54348.19;4995673;28;20022;-71
2023/06/23 03:12:34;;;;;;;13.43;9.07;;;;;;;-144.73;100.00;54366.66;4994971;28;20038;-72
2023/06/23 03:15:00;;;;;;;18.02;8.98;;;;;;;-144.73;100.00;54374.84;5011441;28;20029;-72
2023/06/23 03:17:31;;;;;;;13.68;8.73;;;;;;;-144.73;100.00;54370.75;5011225;28;20034;-71
2023/06/23 03:20:02;;;;;;;13.25;8.80;;;;;;;-144.73;100.00;54389.22;5011764;28;20028;-72
2023/06/23 03:22:47;;;;;;;13.48;8.40;;;;;;;-144.73;100.00;54393.34;4994587;28;20506;-71
2023/06/23 03:25:26;;;;;;;10.80;7.82;;;;;;;-144.73;100.00;54374.84;4994852;28;20057;-73
2023/06/23 03:27:56;;;;;;;12.02;8.75;;;;;;;-144.73;100.00;54346.13;4991352;28;20034;-73
2023/06/23 03:30:31;;;;;;;16.45;8.65;;;;;;;-144.73;100.00;54354.34;5006398;28;20054;-73
2023/06/23 03:33:01;;;;;;;10.95;8.50;;;;;;;-144.73;100.00;54378.97;4999843;28;20026;-73
2023/06/23 03:35:32;;;;;;;12.23;8.98;;;;;;;-144.73;100.00;54346.13;4992731;28;20018;-73
2023/06/23 03:38:02;;;;;;;17.83;9.68;;;;;;;-144.73;100.00;54374.84;4989059;28;20079;-73
2023/06/23 03:40:31;;;;;;;13.30;9.45;;;;;;;-144.73;100.00;54383.06;4988103;28;20058;-74
2023/06/23 03:43:03;;;;;;;14.77;9.10;;;;;;;-144.73;100.00;54407.69;4984513;28;20041;-75
2023/06/23 03:45:31;;;;;;;16.05;9.30;;;;;;;-144.73;100.00;54362.53;4981394;28;20436;-74
2023/06/23 03:48:07;;;;;;;14.52;9.43;;;;;;;-144.73;100.00;54372.81;4978606;28;20210;-73
2023/06/23 03:50:37;;;;;;;12.13;8.20;;;;;;;-144.73;100.00;54407.69;4984867;28;20511;-73
2023/06/23 03:53:04;;;;;;;18.95;9.73;;;;;;;-144.73;100.00;54346.13;5000981;28;20030;-73
2023/06/23 03:55:33;;;;;;;12.75;8.15;;;;;;;-144.73;100.00;54383.06;4982872;28;20018;-73
2023/06/23 03:58:06;;;;;;;12.90;8.55;;;;;;;-144.73;100.00;54383.06;4980319;28;20041;-74
2023/06/23 04:00:34;;;;;;;12.85;7.47;;;;;;;-144.73;100.00;54350.22;4981720;28;20026;-75
2023/06/23 04:03:03;;;;;;;20.48;7.75;;;;;;;-144.73;100.00;54395.38;4999049;28;20034;-75
2023/06/23 04:05:31;;;;;;;10.07;7.97;;;;;;;-144.73;100.00;54391.28;4988253;28;20030;-75
2023/06/23 04:07:59;;;;;;;13.40;8.30;;;;;;;-144.73;100.00;54366.66;4985853;28;20049;-75
2023/06/23 04:10:25;;;;;;;11.55;7.00;;;;;;;-144.73;100.00;54337.91;5007965;28;20079;-75
2023/06/23 04:12:52;;;;;;;16.45;6.88;;;;;;;-144.73;100.00;54370.75;4977732;28;20514;-74
2023/06/23 04:15:19;;;;;;;13.20;7.57;;;;;;;-144.73;100.00;54395.38;4988202;28;20022;-74
2023/06/23 04:17:46;;;;;;;12.32;8.20;;;;;;;-144.73;100.00;54360.50;4976631;28;20074;-74
2023/06/23 04:20:13;;;;;;;12.75;8.68;;;;;;;-144.73;100.00;54350.22;4986622;28;20037;-74
2023/06/23 04:22:43;;;;;;;33.65;10.23;;;;;;;-144.73;100.00;54370.75;4984854;28;20040;-75
2023/06/23 04:25:10;;;;;;;18.83;9.75;;;;;;;-144.73;100.00;54378.97;4987371;28;20034;-74
2023/06/23 04:27:38;;;;;;;18.25;9.90;;;;;;;-144.73;100.00;54366.66;4983865;28;20049;-75
2023/06/23 04:30:06;;;;;;;15.93;9.50;;;;;;;-144.73;100.00;54383.06;4987071;28;20026;-75
2023/06/23 04:32:32;;;;;;;17.15;9.55;;;;;;;-144.73;100.00;54378.97;4988743;28;20066;-76
2023/06/23 04:34:58;;;;;;;19.35;7.70;;;;;;;-144.73;100.00;54346.13;5003366;28;20029;-76
2023/06/23 04:37:27;;;;;;;15.82;8.95;;;;;;;-144.73;100.00;54366.66;4991424;28;20030;-76
2023/06/23 04:39:59;;;;;;;14.68;8.18;;;;;;;-144.73;100.00;54331.75;4986420;28;20021;-75
2023/06/23 04:42:29;;;;;;;11.60;6.97;;;;;;;-144.73;100.00;54376.91;4989072;28;20494;-76
2023/06/23 04:44:58;;;;;;;13.93;8.10;;;;;;;-144.73;100.00;54362.53;5004159;28;20033;-76
2023/06/23 04:47:28;;;;;;;11.27;7.45;;;;;;;-144.73;100.00;54376.91;5002847;28;20037;-74
2023/06/23 04:49:59;;;;;;;9.57;7.82;;;;;;;-144.73;100.00;54397.44;4989901;28;20578;-76
2023/06/23 04:52:27;;;;;;;13.30;7.10;;;;;;;-144.73;100.00;54366.66;4995057;28;20045;-76
2023/06/23 04:54:58;;;;;;;8.88;6.30;;;;;;;-144.73;100.00;54397.44;4984430;28;20022;-77
2023/06/23 04:57:29;;;;;;;14.43;6.47;;;;;;;-144.73;100.00;54391.28;5004853;28;20521;-77
2023/06/23 04:59:58;;;;;;;11.98;6.25;;;;;;;-144.73;100.00;54387.19;4988706;28;20045;-78
2023/06/23 05:02:25;;;;;;;21.13;6.43;;;;;;;-144.73;100.00;54374.84;5005144;28;20034;-78
2023/06/23 05:04:53;;;;;;;12.57;5.72;;;;;;;-144.73;100.00;54378.97;5006627;28;20014;-77
2023/06/23 05:07:18;;;;;;;13.50;6.65;;;;;;;-144.73;100.00;54381.00;4989518;28;20046;-76
2023/06/23 05:09:49;;;;;;;14.40;8.32;;;;;;;-144.73;100.00;54407.69;4988947;28;20088;-77
2023/06/23 05:12:18;;;;;;;9.52;7.18;;;;;;;-144.73;100.00;54378.97;4989451;28;20045;-76
2023/06/23 05:14:46;;;;;;;12.25;7.13;;;;;;;-144.73;100.00;54342.03;4987103;28;20040;-76
2023/06/23 05:17:14;;;;;;;12.32;7.70;;;;;;;-144.73;100.00;54397.44;5008485;28;20084;-76
2023/06/23 05:19:51;;;;;;;13.68;6.90;;;;;;;-144.73;100.00;54370.75;5005383;28;20034;-76
2023/06/23 05:22:19;;;;;;;8.75;6.47;;;;;;;-144.73;100.00;54385.13;5007705;28;20042;-76
2023/06/23 05:24:51;;;;;;;17.60;7.18;;;;;;;-144.73;100.00;54370.75;5010683;28;20470;-70
2023/06/23 05:27:23;;;;;;;11.93;7.25;;;;;;;-144.73;100.00;54387.19;4992695;28;20117;-72
2023/06/23 05:29:51;;;;;;;17.27;9.77;;;;;;;-144.73;100.00;54387.19;5010516;28;20025;-72
2023/06/23 05:32:19;;;;;;;15.00;9.27;;;;;;;-144.73;100.00;54387.19;4989996;28;20030;-71
2023/06/23 05:34:48;;;;;;;17.48;6.75;;;;;;;-144.73;100.00;54376.91;4990736;28;20032;-71
2023/06/23 05:37:16;;;;;;;13.10;7.72;;;;;;;-144.73;100.00;54370.75;5007854;28;20030;-71
2023/06/23 05:39:43;;;;;;;9.15;6.80;;;;;;;-144.73;100.00;54387.19;5008979;28;20033;-71
2023/06/23 05:42:09;;;;;;;10.80;7.15;;;;;;;-144.73;100.00;54362.53;4992231;28;20042;-70
2023/06/23 05:44:34;;;;;;;13.40;6.90;;;;;;;-144.73;100.00;54407.69;4993658;28;20109;-71
2023/06/23 05:47:02;;;;;;;9.80;6.68;;;;;;;-144.73;100.00;54383.06;4992528;28;20056;-72
2023/06/23 05:49:34;;;;;;;11.65;7.15;;;;;;;-144.73;100.00;54395.38;4993268;28;20026;-71
2023/06/23 05:52:03;;;;;;;19.98;7.30;;;;;;;-144.73;100.00;54366.66;4992584;28;20391;-71
2023/06/23 05:54:33;;;;;;;12.13;7.43;;;;;;;-144.73;100.00;54370.75;4992923;28;20025;-71
2023/06/23 05:57:01;;;;;;;15.88;6.97;;;;;;;-144.73;100.00;54415.91;4992168;28;20050;-72
2023/06/23 05:59:44;;;;;;;19.58;7.28;;;;;;;-144.73;100.00;54362.53;5010068;28;20029;-71
2023/06/23 06:02:18;;;;;;;12.90;7.53;;;;;;;-144.73;100.00;54370.75;4992157;28;20152;-71
2023/06/23 06:04:47;;;;;;;15.25;8.02;;;;;;;-144.73;100.00;54407.69;4993018;28;20148;-71
2023/06/23 06:07:15;;;;;;;14.32;7.97;;;;;;;-144.73;100.00;54362.53;5003581;28;20121;-71
2023/06/23 06:09:43;;;;;;;16.92;7.93;;;;;;;-144.73;100.00;54346.13;4973963;28;20026;-71
2023/06/23 06:12:10;;;;;;;13.10;7.18;;;;;;;-144.73;100.00;54366.66;4990089;28;20058;-71
2023/06/23 06:14:38;;;;;;;21.85;11.65;;;;;;;-144.73;100.00;54350.22;5007135;28;20029;-71
2023/06/23 06:17:07;;;;;;;18.98;7.53;;;;;;;-144.73;100.00;54395.38;4989684;28;20045;-71
2023/06/23 06:19:34;;;;;;;12.38;8.20;;;;;;;-144.73;100.00;54374.84;5006668;28;20026;-71
2023/06/23 06:22:00;;;;;;;14.52;7.20;;;;;;;-144.73;100.00;54387.19;4995624;28;20026;-71
2023/06/23 06:24:28;;;;;;;21.65;8.75;;;;;;;-144.73;100.00;54395.38;4996302;28;20040;-71
2023/06/23 06:26:56;;;;;;;11.98;7.75;;;;;;;-144.73;100.00;54362.53;5013104;28;20041;-71
2023/06/23 06:29:22;;;;;;;12.85;7.30;;;;;;;-144.73;100.00;54417.97;5014145;28;20069;-72
2023/06/23 06:31:49;;;;;;;15.35;8.55;;;;;;;-144.73;100.00;54342.03;5012731;28;20037;-72
2023/06/23 06:34:17;;;;;;;16.40;8.25;;;;;;;-144.73;100.00;54370.75;5006897;28;20034;-72
2023/06/23 06:36:44;;;;;;;13.55;7.85;;;;;;;-144.73;100.00;54366.66;5001960;28;20050;-72
2023/06/23 06:39:10;;;;;;;16.08;8.27;;;;;;;-144.73;100.00;54395.38;4996018;28;20482;-72
2023/06/23 06:41:37;;;;;;;15.57;8.70;;;;;;;-144.73;100.00;54389.22;4995072;28;20034;-72
2023/06/23 06:44:03;;;;;;;14.73;8.27;;;;;;;-144.73;100.00;54362.53;5008499;28;20022;-72
2023/06/23 06:46:30;;;;;;;13.85;8.50;;;;;;;-144.73;100.00;54354.34;4976045;28;20034;-72
2023/06/23 06:48:56;;;;;;;15.00;8.77;;;;;;;-144.73;100.00;54354.34;4993711;28;20030;-72
2023/06/23 06:51:22;;;;;;;23.15;8.85;;;;;;;-144.73;100.00;54395.38;4993519;28;20042;-72
2023/06/23 06:53:48;;;;;;;14.27;9.77;;;;;;;-144.73;100.00;54370.75;5003454;28;20077;-72
2023/06/23 06:56:14;;;;;;;16.33;11.18;;;;;;;-144.73;100.00;54368.69;4989471;28;20518;-73
2023/06/23 06:58:40;;;;;;;22.83;12.80;;;;;;;-144.73;100.00;54399.50;4993352;28;20122;-72
2023/06/23 07:01:06;;;;;;;15.20;9.13;;;;;;;-144.73;100.00;54395.38;4995325;28;20037;-71
2023/06/23 07:03:33;;;;;;;18.63;9.68;;;;;;;-144.73;100.00;54395.38;4994553;28;20030;-71
2023/06/23 07:05:59;;;;;;;14.80;8.82;;;;;;;-144.73;100.00;54342.03;4991657;28;20038;-71
2023/06/23 07:08:24;;;;;;;14.88;8.57;;;;;;;-144.73;100.00;54399.50;5001706;28;20035;-71
2023/06/23 07:10:49;;;;;;;14.00;8.85;;;;;;;-144.73;100.00;54329.72;4983963;28;20018;-71
2023/06/23 07:13:15;;;;;;;13.38;8.55;;;;;;;-144.73;100.00;54387.19;4979881;28;20483;-72
2023/06/23 07:15:40;;;;;;;17.85;8.15;;;;;;;-144.73;100.00;54383.06;4979014;28;20030;-71
2023/06/23 07:18:06;;;;;;;12.75;8.77;;;;;;;-144.73;100.00;54339.97;4980453;28;20123;-72
2023/06/23 07:20:31;;;;;;;16.13;8.45;;;;;;;-144.73;100.00;54354.34;5004211;28;20022;-72
2023/06/23 07:22:57;;;;;;;18.38;10.40;;;;;;;-144.73;100.00;54374.84;4995916;28;20038;-72
2023/06/23 07:25:22;;;;;;;14.23;9.32;;;;;;;-144.73;100.00;54358.44;5012898;28;20109;-72
2023/06/23 07:27:48;;;;;;;16.58;9.32;;;;;;;-144.73;100.00;54366.66;4977365;28;20385;-72
2023/06/23 07:30:15;;;;;;;19.80;8.95;;;;;;;-144.73;100.00;54370.75;4976712;28;20041;-73
2023/06/23 07:32:40;;;;;;;14.30;9.35;;;;;;;-144.73;100.00;54411.81;4985229;28;20118;-72
2023/06/23 07:35:06;;;;;;;15.57;9.07;;;;;;;-144.73;100.00;54366.66;4995049;28;20118;-72
2023/06/23 07:37:32;;;;;;;10.85;7.80;;;;;;;-144.73;100.00;54383.06;4987305;28;20062;-72
2023/06/23 07:39:57;;;;;;;14.32;9.48;;;;;;;-144.73;100.00;54395.38;4980063;28;20433;-72
2023/06/23 07:42:23;;;;;;;14.35;9.48;;;;;;;-144.73;100.00;54368.69;4997712;28;20030;-72
2023/06/23 07:44:49;;;;;;;16.98;9.38;;;;;;;-144.73;100.00;54407.69;4986005;28;20060;-72
2023/06/23 07:47:14;;;;;;;20.60;10.38;;;;;;;-144.73;100.00;54376.91;5011888;28;20407;-72
2023/06/23 07:49:40;;;;;;;17.55;10.63;;;;;;;-144.73;100.00;54407.69;4986090;28;20476;-72
2023/06/23 07:52:06;;;;;;;16.92;10.77;;;;;;;-144.73;100.00;54407.69;4987056;28;20038;-72
2023/06/23 07:54:31;;;;;;;18.80;10.23;;;;;;;-144.73;100.00;54393.34;5012338;28;20025;-72
2023/06/23 07:56:59;;;;;;;29.10;12.30;;;;;;;-144.73;100.00;54407.69;4994309;28;20486;-72
2023/06/23 07:59:25;;;;;;;24.00;11.20;;;;;;;-144.73;100.00;54350.22;4995379;28;20022;-72
2023/06/23 08:01:51;;;;;;;15.90;11.30;;;;;;;-144.73;100.00;54378.97;4986631;28;20046;-71
2023/06/23 08:04:17;;;;;;;19.02;12.13;;;;;;;-144.73;100.00;54370.75;5010464;28;20033;-72
2023/06/23 08:06:42;;;;;;;26.90;13.10;;;;;;;-144.73;100.00;54395.38;4994157;28;20026;-71
2023/06/23 08:09:08;;;;;;;20.73;12.68;;;;;;;-144.73;100.00;54407.69;4994982;28;20037;-71
2023/06/23 08:11:33;;;;;;;22.25;13.05;;;;;;;-144.73;100.00;54411.81;5011206;28;20033;-71
2023/06/23 08:14:00;;;;;;;19.42;11.73;;;;;;;-144.73;100.00;54432.31;5012614;28;20386;-70
2023/06/23 08:16:25;;;;;;;27.25;16.30;;;;;;;-144.73;100.00;54370.75;5010628;28;20479;-70
2023/06/23 08:18:51;;;;;;;25.35;16.05;;;;;;;-144.73;100.00;54391.28;4994837;28;20021;-70
2023/06/23 08:21:16;;;;;;;20.55;13.15;;;;;;;-144.73;100.00;54417.97;4994329;28;20065;-70
2023/06/23 08:23:44;;;;;;;22.15;14.40;;;;;;;-144.73;100.00;54407.69;4993910;28;20116;-71
2023/06/23 08:26:10;;;;;;;21.15;11.60;;;;;;;-144.73;100.00;54374.84;4994302;28;20022;-70
2023/06/23 08:28:35;;;;;;;20.83;11.45;;;;;;;-144.73;100.00;54420.00;4993940;28;20117;-70
2023/06/23 08:31:00;;;;;;;19.08;11.68;;;;;;;-144.73;100.00;54407.69;4994228;28;20466;-70
2023/06/23 08:33:26;;;;;;;19.30;12.57;;;;;;;-144.73;100.00;54411.81;4993937;28;20116;-70
2023/06/23 08:35:51;;;;;;;21.50;11.50;;;;;;;-144.73;100.00;54391.28;5011219;28;20053;-70
2023/06/23 08:38:17;;;;;;;17.52;11.55;;;;;;;-144.73;100.00;54366.66;4993852;28;20030;-71
2023/06/23 08:40:44;;;;;;;21.48;11.07;;;;;;;-144.73;100.00;54399.50;5011624;28;20036;-71
2023/06/23 08:43:10;;;;;;;22.80;11.23;;;;;;;-144.73;100.00;54391.28;4993340;28;20034;-71
2023/06/23 08:45:44;;;;;;;22.35;11.50;;;;;;;-144.73;100.00;54364.59;4978425;28;20053;-71
2023/06/23 08:48:10;;;;;;;21.77;11.82;;;;;;;-144.73;100.00;54383.06;4993766;28;20060;-71
2023/06/23 08:50:37;;;;;;;16.45;11.63;;;;;;;-144.73;100.00;54411.81;4994386;28;20033;-71
2023/06/23 08:53:04;;;;;;;21.88;12.07;;;;;;;-144.73;100.00;54399.50;4993803;28;20034;-71
2023/06/23 08:55:32;;;;;;;18.50;12.68;;;;;;;-144.73;100.00;54397.44;4994803;28;20029;-72
2023/06/23 08:58:00;;;;;;;19.70;11.30;;;;;;;-144.73;100.00;54342.03;4994029;28;20030;-70
2023/06/23 09:00:26;;;;;;;17.30;10.88;;;;;;;-144.73;100.00;54376.91;4993937;28;20024;-71
2023/06/23 09:02:51;;;;;;;18.70;12.50;;;;;;;-144.73;100.00;54407.69;4993484;28;20029;-70
2023/06/23 09:05:16;;;;;;;16.92;11.40;;;;;;;-144.73;100.00;54417.97;4994234;28;20120;-70
2023/06/23 09:07:42;;;;;;;14.80;11.25;;;;;;;-144.73;100.00;54391.28;4993406;28;20038;-70
2023/06/23 09:10:08;;;;;;;19.02;11.98;;;;;;;-144.73;100.00;54422.06;4993976;28;20033;-71
2023/06/23 09:12:34;;;;;;;19.10;12.20;;;;;;;-144.73;100.00;54409.75;4993492;28;20030;-70
2023/06/23 09:15:01;;;;;;;23.45;10.90;;;;;;;-144.73;100.00;54417.97;4994110;28;20037;-71
2023/06/23 09:17:28;;;;;;;18.70;11.10;;;;;;;-144.73;100.00;54399.50;4993870;28;20041;-70
2023/06/23 09:19:54;;;;;;;17.35;10.80;;;;;;;-144.73;100.00;54378.97;4994582;28;20026;-70
2023/06/23 09:22:20;;;;;;;17.95;11.25;;;;;;;-144.73;100.00;54395.38;4993779;28;20065;-70
2023/06/23 09:24:47;;;;;;;15.75;11.15;;;;;;;-144.73;100.00;54448.75;4994469;28;20054;-70
2023/06/23 09:27:14;;;;;;;26.42;12.32;;;;;;;-144.73;100.00;54411.81;4994272;28;20084;-70
2023/06/23 09:29:39;;;;;;;22.00;10.98;;;;;;;-144.73;100.00;54339.97;4994554;28;20026;-70
2023/06/23 09:32:08;;;;;;;26.30;12.23;;;;;;;-144.73;100.00;54378.97;4994121;28;20091;-70
2023/06/23 09:34:34;;;;;;;15.77;10.98;;;;;;;-144.73;100.00;54436.44;4994966;28;20022;-70
2023/06/23 09:37:11;;;;;;;20.70;12.50;;;;;;;-144.73;100.00;54413.84;4994803;28;20026;-71
2023/06/23 09:39:43;;;;;;;24.95;11.70;;;;;;;-144.73;100.00;54415.91;4995510;28;20026;-71
2023/06/23 09:42:13;;;;;;;15.93;10.05;;;;;;;-144.73;100.00;54387.19;4996890;28;20053;-71
2023/06/23 09:44:40;;;;;;;16.95;11.38;;;;;;;-144.73;100.00;54399.50;4998428;28;20032;-72
2023/06/23 09:47:06;;;;;;;14.00;9.98;;;;;;;-144.73;100.00;54395.38;4996240;28;20030;-71
2023/06/23 09:49:40;;;;;;;15.68;10.35;;;;;;;-144.73;100.00;54374.84;4996910;28;20026;-72
2023/06/23 09:52:07;;;;;;;17.95;12.10;;;;;;;-144.73;100.00;54407.69;4996619;28;20053;-72
2023/06/23 09:54:37;;;;;;;17.15;9.20;;;;;;;-144.73;100.00;54395.38;4997344;28;20029;-72
2023/06/23 09:57:06;;;;;;;21.10;10.32;;;;;;;-144.73;100.00;54407.69;4998649;28;20037;-71
2023/06/23 09:59:31;;;;;;;13.20;9.40;;;;;;;-144.73;100.00;54370.75;4999791;28;20018;-72
2023/06/23 10:01:57;;;;;;;16.95;9.15;;;;;;;-144.73;100.00;54409.75;4999307;28;20033;-71
2023/06/23 10:04:31;;;;;;;18.15;9.45;;;;;;;-144.73;100.00;54409.75;4999044;28;20034;-71
2023/06/23 10:06:58;;;;;;;17.25;8.43;;;;;;;-144.73;100.00;54395.38;4998958;28;20034;-70
2023/06/23 10:09:24;;;;;;;13.10;8.40;;;;;;;-144.73;100.00;54378.97;4999064;28;20033;-76
2023/06/23 10:11:50;;;;;;;14.77;10.18;;;;;;;-144.73;100.00;54395.38;4988451;28;20046;-76
2023/06/23 10:14:15;;;;;;;17.30;11.10;;;;;;;-144.73;100.00;54391.28;4989213;28;20022;-76
2023/06/23 10:16:45;;;;;;;17.60;11.00;;;;;;;-144.73;100.00;54378.97;4985654;28;20061;-76
2023/06/23 10:19:16;;;;;;;15.48;9.82;;;;;;;-144.73;100.00;54366.66;4991862;28;20017;-76
2023/06/23 10:21:43;;;;;;;20.35;10.65;;;;;;;-144.73;100.00;54374.84;4977403;28;20121;-76
2023/06/23 10:24:13;;;;;;;24.35;13.55;;;;;;;-144.73;100.00;54374.84;4991720;28;20053;-76
2023/06/23 10:26:39;;;;;;;19.75;12.10;;;;;;;-144.73;100.00;54407.69;4985518;28;20022;-76
2023/06/23 10:29:07;;;;;;;19.13;11.65;;;;;;;-144.73;100.00;54391.28;4985302;28;20022;-76
2023/06/23 10:31:32;;;;;;;22.75;11.02;;;;;;;-144.73;100.00;54415.91;4983194;28;20026;-76
2023/06/23 10:33:59;;;;;;;18.83;11.38;;;;;;;-144.73;100.00;54370.75;5005351;28;20023;-75
2023/06/23 10:36:25;;;;;;;23.05;13.63;;;;;;;-144.73;100.00;54436.44;5005253;28;20022;-75
2023/06/23 10:38:52;;;;;;;15.75;11.35;;;;;;;-144.73;100.00;54374.84;4992629;28;20145;-76
2023/06/23 10:41:18;;;;;;;16.17;11.05;;;;;;;-144.73;100.00;54395.38;5010463;28;20018;-76
2023/06/23 10:43:47;;;;;;;19.10;10.90;;;;;;;-144.73;100.00;54378.97;4994421;28;20041;-75
2023/06/23 10:46:13;;;;;;;18.30;11.15;;;;;;;-144.73;100.00;54374.84;4995083;28;20379;-76
2023/06/23 10:48:39;;;;;;;13.75;9.88;;;;;;;-144.73;100.00;54366.66;5001404;28;20034;-76
2023/06/23 10:51:05;;;;;;;20.90;10.48;;;;;;;-144.73;100.00;54366.66;4992668;28;20026;-76
2023/06/23 10:53:32;;;;;;;26.40;11.18;;;;;;;-144.73;100.00;54391.28;4981960;28;20094;-77
2023/06/23 10:55:59;;;;;;;21.58;10.80;;;;;;;-144.73;100.00;54420.00;4990917;28;20034;-76
2023/06/23 10:58:26;;;;;;;20.00;11.23;;;;;;;-144.73;100.00;54391.28;4990627;28;20040;-75
2023/06/23 11:01:00;;;;;;;17.85;11.70;;;;;;;-144.73;100.00;54399.50;4987667;28;20022;-73